Terminal Aerodrome Forecast
Issued by NWS Sterling, VA

Current Version | Previous Version | Graphics & Text | Print | Product List | Glossary On
Versions: 1 2 3 4 5 6 7 8 9 10 11 12 13 14 15 16 17 18 19 20 21 22 23
000
FTUS41 KLWX 262340 RRA
TAFDCA
TAF
KDCA 262340Z 2700/2724 06003KT P6SM BKN040
     FM270500 36005KT 6SM -SHSN OVC025
     FM270900 35005KT P6SM OVC035
     FM271500 34012G20KT P6SM BKN035
     FM272300 35008KT P6SM SCT050=

USA.gov is the U.S. government's official web portal to all federal, state and local government web resources and services.